Aviation Digital Data Service (ADDS)

Output produced by METARs form (0748 UTC 18 February 2019)
found at http://www.aviationweather.gov/metar/data/
 
METAR text: KORD 180711Z 34007KT 3SM -SN BR SCT016 BKN022 OVC028 M04/M04 A2998 RMK AO2 P0001 T10391044
Conditions at: KORD (CHICAGO O'HARE , IL, US) observed 0711 UTC 18 February 2019
Temperature: -3.9°C (25°F)
Dewpoint: -4.4°C (24°F) [RH = 96%]
Pressure (altimeter): 29.98 inches Hg (1015.3 mb)
Winds: from the NNW (340 degrees) at 8 MPH (7 knots; 3.6 m/s)
Visibility: 3 miles ( 5 km)
Ceiling: 2200 feet AGL
Clouds: scattered clouds at 1600 feet AGL
broken clouds at 2200 feet AGL
overcast cloud deck at 2800 feet AGL
Weather: -SN BR  (light snow, mist)

METAR text: KORD 180658Z 34007KT 1 3/4SM -SN BR SCT016 BKN022 OVC028 M04/M04 A2998 RMK AO2 P0001 T10391044
Conditions at: KORD (CHICAGO O'HARE , IL, US) observed 0658 UTC 18 February 2019
Temperature: -3.9°C (25°F)
Dewpoint: -4.4°C (24°F) [RH = 96%]
Pressure (altimeter): 29.98 inches Hg (1015.3 mb)
Winds: from the NNW (340 degrees) at 8 MPH (7 knots; 3.6 m/s)
Visibility: 1.75 miles (2.82 km)
Ceiling: 2200 feet AGL
Clouds: scattered clouds at 1600 feet AGL
broken clouds at 2200 feet AGL
overcast cloud deck at 2800 feet AGL
Weather: -SN BR  (light snow, mist)

METAR text: KORD 180651Z 34007KT 2SM -SN BR SCT016 BKN028 OVC043 M04/M04 A2998 RMK AO2 SLP160 P0000 T10391044
Conditions at: KORD (CHICAGO O'HARE , IL, US) observed 0651 UTC 18 February 2019
Temperature: -3.9°C (25°F)
Dewpoint: -4.4°C (24°F) [RH = 96%]
Pressure (altimeter): 29.98 inches Hg (1015.3 mb)
[Sea-level pressure: 1016.0 mb]
Winds: from the NNW (340 degrees) at 8 MPH (7 knots; 3.6 m/s)
Visibility: 2.00 miles (3.22 km)
Ceiling: 2800 feet AGL
Clouds: scattered clouds at 1600 feet AGL
broken clouds at 2800 feet AGL
overcast cloud deck at 4300 feet AGL
Weather: -SN BR  (light snow, mist)

METAR text: KORD 180627Z 33007KT 2SM -SN BR FEW012 BKN028 OVC043 M04/M04 A2996 RMK AO2 P0000 T10391044
Conditions at: KORD (CHICAGO O'HARE , IL, US) observed 0627 UTC 18 February 2019
Temperature: -3.9°C (25°F)
Dewpoint: -4.4°C (24°F) [RH = 96%]
Pressure (altimeter): 29.96 inches Hg (1014.6 mb)
Winds: from the NNW (330 degrees) at 8 MPH (7 knots; 3.6 m/s)
Visibility: 2.00 miles (3.22 km)
Ceiling: 2800 feet AGL
Clouds: few clouds at 1200 feet AGL
broken clouds at 2800 feet AGL
overcast cloud deck at 4300 feet AGL
Weather: -SN BR  (light snow, mist)

METAR text: KORD 180558Z 35006KT 2SM -SN BR FEW012 OVC030 M04/M04 A2995 RMK AO2 P0000 T10391044
Conditions at: KORD (CHICAGO O'HARE , IL, US) observed 0558 UTC 18 February 2019
Temperature: -3.9°C (25°F)
Dewpoint: -4.4°C (24°F) [RH = 96%]
Pressure (altimeter): 29.95 inches Hg (1014.3 mb)
Winds: from the N (350 degrees) at 7 MPH (6 knots; 3.1 m/s)
Visibility: 2.00 miles (3.22 km)
Ceiling: 3000 feet AGL
Clouds: few clouds at 1200 feet AGL
overcast cloud deck at 3000 feet AGL
Weather: -SN BR  (light snow, mist)

METAR text: KORD 180551Z 34007KT 3SM -SN BR FEW012 OVC030 M04/M04 A2995 RMK AO2 SLP151 4/003 P0001 60004 T10391044 11033 21044 410281044 53013
Conditions at: KORD (CHICAGO O'HARE , IL, US) observed 0551 UTC 18 February 2019
Temperature: -3.9°C (25°F)
Dewpoint: -4.4°C (24°F) [RH = 96%]
Pressure (altimeter): 29.95 inches Hg (1014.3 mb)
[Sea-level pressure: 1015.1 mb]
Winds: from the NNW (340 degrees) at 8 MPH (7 knots; 3.6 m/s)
Visibility: 3 miles ( 5 km)
Ceiling: 3000 feet AGL
Clouds: few clouds at 1200 feet AGL
overcast cloud deck at 3000 feet AGL
Weather: -SN BR  (light snow, mist)

METAR text: KORD 180451Z 35008KT 4SM -SN BR SCT015 OVC035 M04/M05 A2993 RMK AO2 SLP143 P0000 T10391050
Conditions at: KORD (CHICAGO O'HARE , IL, US) observed 0451 UTC 18 February 2019
Temperature: -3.9°C (25°F)
Dewpoint: -5.0°C (23°F) [RH = 92%]
Pressure (altimeter): 29.93 inches Hg (1013.6 mb)
[Sea-level pressure: 1014.3 mb]
Winds: from the N (350 degrees) at 9 MPH (8 knots; 4.1 m/s)
Visibility: 4 miles ( 6 km)
Ceiling: 3500 feet AGL
Clouds: scattered clouds at 1500 feet AGL
overcast cloud deck at 3500 feet AGL
Weather: -SN BR  (light snow, mist)

METAR text: KORD 180447Z 36008KT 4SM -SN BR SCT015 OVC035 M04/M05 A2992 RMK AO2 P0000
Conditions at: KORD (CHICAGO O'HARE , IL, US) observed 0447 UTC 18 February 2019
Temperature: -4.0°C (25°F)
Dewpoint: -5.0°C (23°F) [RH = 93%]
Pressure (altimeter): 29.92 inches Hg (1013.3 mb)
Winds: from the N (360 degrees) at 9 MPH (8 knots; 4.1 m/s)
Visibility: 4 miles ( 6 km)
Ceiling: 3500 feet AGL
Clouds: scattered clouds at 1500 feet AGL
overcast cloud deck at 3500 feet AGL
Weather: -SN BR  (light snow, mist)

METAR text: KORD 180423Z 36008KT 4SM -SN BR BKN015 OVC035 M04/M04 A2992 RMK AO2 P0000 T10391044
Conditions at: KORD (CHICAGO O'HARE , IL, US) observed 0423 UTC 18 February 2019
Temperature: -3.9°C (25°F)
Dewpoint: -4.4°C (24°F) [RH = 96%]
Pressure (altimeter): 29.92 inches Hg (1013.3 mb)
Winds: from the N (360 degrees) at 9 MPH (8 knots; 4.1 m/s)
Visibility: 4 miles ( 6 km)
Ceiling: 1500 feet AGL
Clouds: broken clouds at 1500 feet AGL
overcast cloud deck at 3500 feet AGL
Weather: -SN BR  (light snow, mist)

METAR text: KORD 180351Z 01009KT 2 1/2SM -SN BR FEW009 BKN015 OVC032 M04/M04 A2991 RMK AO2 SLP138 P0000 T10391044
Conditions at: KORD (CHICAGO O'HARE , IL, US) observed 0351 UTC 18 February 2019
Temperature: -3.9°C (25°F)
Dewpoint: -4.4°C (24°F) [RH = 96%]
Pressure (altimeter): 29.91 inches Hg (1013.0 mb)
[Sea-level pressure: 1013.8 mb]
Winds: from the N (10 degrees) at 10 MPH (9 knots; 4.6 m/s)
Visibility: 2.50 miles (4.02 km)
Ceiling: 1500 feet AGL
Clouds: few clouds at 900 feet AGL
broken clouds at 1500 feet AGL
overcast cloud deck at 3200 feet AGL
Weather: -SN BR  (light snow, mist)

METAR text: KORD 180317Z 02009KT 2 1/2SM -SN BR FEW008 BKN020 OVC035 M04/M04 A2990 RMK AO2 P0000 T10391044
Conditions at: KORD (CHICAGO O'HARE , IL, US) observed 0317 UTC 18 February 2019
Temperature: -3.9°C (25°F)
Dewpoint: -4.4°C (24°F) [RH = 96%]
Pressure (altimeter): 29.90 inches Hg (1012.6 mb)
Winds: from the NNE (20 degrees) at 10 MPH (9 knots; 4.6 m/s)
Visibility: 2.50 miles (4.02 km)
Ceiling: 2000 feet AGL
Clouds: few clouds at 800 feet AGL
broken clouds at 2000 feet AGL
overcast cloud deck at 3500 feet AGL
Weather: -SN BR  (light snow, mist)

METAR text: KORD 180251Z 01009KT 2 1/2SM -SN BR SCT008 BKN033 OVC050 M04/M04 A2989 RMK AO2 SLP130 P0000 60003 T10391044 51014
Conditions at: KORD (CHICAGO O'HARE , IL, US) observed 0251 UTC 18 February 2019
Temperature: -3.9°C (25°F)
Dewpoint: -4.4°C (24°F) [RH = 96%]
Pressure (altimeter): 29.89 inches Hg (1012.3 mb)
[Sea-level pressure: 1013.0 mb]
Winds: from the N (10 degrees) at 10 MPH (9 knots; 4.6 m/s)
Visibility: 2.50 miles (4.02 km)
Ceiling: 3300 feet AGL
Clouds: scattered clouds at 800 feet AGL
broken clouds at 3300 feet AGL
overcast cloud deck at 5000 feet AGL
Weather: -SN BR  (light snow, mist)

METAR text: KORD 180236Z 01009KT 2 1/2SM -SN BR SCT008 BKN031 OVC050 M04/M04 A2989 RMK AO2 P0000 T10391044
Conditions at: KORD (CHICAGO O'HARE , IL, US) observed 0236 UTC 18 February 2019
Temperature: -3.9°C (25°F)
Dewpoint: -4.4°C (24°F) [RH = 96%]
Pressure (altimeter): 29.89 inches Hg (1012.3 mb)
Winds: from the N (10 degrees) at 10 MPH (9 knots; 4.6 m/s)
Visibility: 2.50 miles (4.02 km)
Ceiling: 3100 feet AGL
Clouds: scattered clouds at 800 feet AGL
broken clouds at 3100 feet AGL
overcast cloud deck at 5000 feet AGL
Weather: -SN BR  (light snow, mist)

METAR text: KORD 180218Z 02009KT 2SM -SN BR SCT008 BKN017 OVC024 M04/M04 A2988 RMK AO2 P0000 T10391044
Conditions at: KORD (CHICAGO O'HARE , IL, US) observed 0218 UTC 18 February 2019
Temperature: -3.9°C (25°F)
Dewpoint: -4.4°C (24°F) [RH = 96%]
Pressure (altimeter): 29.88 inches Hg (1011.9 mb)
Winds: from the NNE (20 degrees) at 10 MPH (9 knots; 4.6 m/s)
Visibility: 2.00 miles (3.22 km)
Ceiling: 1700 feet AGL
Clouds: scattered clouds at 800 feet AGL
broken clouds at 1700 feet AGL
overcast cloud deck at 2400 feet AGL
Weather: -SN BR  (light snow, mist)

METAR text: KORD 180206Z 03010KT 1 3/4SM R10L/5500VP6000FT -SN BR SCT008 BKN015 OVC022 M03/M04 A2988 RMK AO2 P0000 T10331044
Conditions at: KORD (CHICAGO O'HARE , IL, US) observed 0206 UTC 18 February 2019
Temperature: -3.3°C (26°F)
Dewpoint: -4.4°C (24°F) [RH = 92%]
Pressure (altimeter): 29.88 inches Hg (1011.9 mb)
Winds: from the NNE (30 degrees) at 12 MPH (10 knots; 5.1 m/s)
Visibility: 1.75 miles (2.82 km)
Ceiling: 1500 feet AGL
Clouds: scattered clouds at 800 feet AGL
broken clouds at 1500 feet AGL
overcast cloud deck at 2200 feet AGL
Weather: -SN BR  (light snow, mist)

METAR text: KORD 180151Z 02010KT 1SM R10L/4000VP6000FT -SN BR FEW008 OVC013 M03/M04 A2988 RMK AO2 SLP127 SNINCR 1/3 P0001 T10331044
Conditions at: KORD (CHICAGO O'HARE , IL, US) observed 0151 UTC 18 February 2019
Temperature: -3.3°C (26°F)
Dewpoint: -4.4°C (24°F) [RH = 92%]
Pressure (altimeter): 29.88 inches Hg (1011.9 mb)
[Sea-level pressure: 1012.7 mb]
Winds: from the NNE (20 degrees) at 12 MPH (10 knots; 5.1 m/s)
Visibility: 1.00 miles (1.61 km)
Ceiling: 1300 feet AGL
Clouds: few clouds at 800 feet AGL
overcast cloud deck at 1300 feet AGL
Weather: -SN BR  (light snow, mist)

METAR text: KORD 180121Z 02012KT 1 1/4SM R10L/6000VP6000FT -SN BR SCT008 BKN017 OVC026 M03/M04 A2987 RMK AO2 P0000 T10331044
Conditions at: KORD (CHICAGO O'HARE , IL, US) observed 0121 UTC 18 February 2019
Temperature: -3.3°C (26°F)
Dewpoint: -4.4°C (24°F) [RH = 92%]
Pressure (altimeter): 29.87 inches Hg (1011.6 mb)
Winds: from the NNE (20 degrees) at 14 MPH (12 knots; 6.2 m/s)
Visibility: 1.25 miles (2.01 km)
Ceiling: 1700 feet AGL
Clouds: scattered clouds at 800 feet AGL
broken clouds at 1700 feet AGL
overcast cloud deck at 2600 feet AGL
Weather: -SN BR  (light snow, mist)

METAR text: KORD 180105Z 03011KT 1 1/2SM -SN BR SCT008 BKN017 OVC026 M03/M04 A2987 RMK AO2 P0000 T10331044
Conditions at: KORD (CHICAGO O'HARE , IL, US) observed 0105 UTC 18 February 2019
Temperature: -3.3°C (26°F)
Dewpoint: -4.4°C (24°F) [RH = 92%]
Pressure (altimeter): 29.87 inches Hg (1011.6 mb)
Winds: from the NNE (30 degrees) at 13 MPH (11 knots; 5.7 m/s)
Visibility: 1.50 miles (2.41 km)
Ceiling: 1700 feet AGL
Clouds: scattered clouds at 800 feet AGL
broken clouds at 1700 feet AGL
overcast cloud deck at 2600 feet AGL
Weather: -SN BR  (light snow, mist)

METAR text: KORD 180051Z 02010KT 1 1/4SM -SN BR SCT008 BKN012 OVC023 M03/M04 A2987 RMK AO2 SLP124 P0002 T10331044
Conditions at: KORD (CHICAGO O'HARE , IL, US) observed 0051 UTC 18 February 2019
Temperature: -3.3°C (26°F)
Dewpoint: -4.4°C (24°F) [RH = 92%]
Pressure (altimeter): 29.87 inches Hg (1011.6 mb)
[Sea-level pressure: 1012.4 mb]
Winds: from the NNE (20 degrees) at 12 MPH (10 knots; 5.1 m/s)
Visibility: 1.25 miles (2.01 km)
Ceiling: 1200 feet AGL
Clouds: scattered clouds at 800 feet AGL
broken clouds at 1200 feet AGL
overcast cloud deck at 2300 feet AGL
Weather: -SN BR  (light snow, mist)

METAR text: KORD 172351Z 05010KT 1 1/2SM -SN BR SCT008 BKN012 OVC023 M03/M04 A2984 RMK AO2 SLP115 4/002 P0003 60006 I6000 T10331044 11028 21033 53015
Conditions at: KORD (CHICAGO O'HARE , IL, US) observed 2351 UTC 17 February 2019
Temperature: -3.3°C (26°F)
Dewpoint: -4.4°C (24°F) [RH = 92%]
Pressure (altimeter): 29.84 inches Hg (1010.6 mb)
[Sea-level pressure: 1011.5 mb]
Winds: from the NE (50 degrees) at 12 MPH (10 knots; 5.1 m/s)
Visibility: 1.50 miles (2.41 km)
Ceiling: 1200 feet AGL
Clouds: scattered clouds at 800 feet AGL
broken clouds at 1200 feet AGL
overcast cloud deck at 2300 feet AGL
Weather: -SN BR  (light snow, mist)

METAR text: KORD 172313Z 07008KT 1 3/4SM R10L/5000VP6000FT -SN BR SCT008 BKN014 OVC023 M03/M04 A2983 RMK AO2 P0001 T10281039
Conditions at: KORD (CHICAGO O'HARE , IL, US) observed 2313 UTC 17 February 2019
Temperature: -2.8°C (27°F)
Dewpoint: -3.9°C (25°F) [RH = 92%]
Pressure (altimeter): 29.83 inches Hg (1010.2 mb)
Winds: from the ENE (70 degrees) at 9 MPH (8 knots; 4.1 m/s)
Visibility: 1.75 miles (2.82 km)
Ceiling: 1400 feet AGL
Clouds: scattered clouds at 800 feet AGL
broken clouds at 1400 feet AGL
overcast cloud deck at 2300 feet AGL
Weather: -SN BR  (light snow, mist)

METAR text: KORD 172251Z 07008KT 2SM R10L/6000VP6000FT -SN BR SCT008 BKN014 OVC020 M03/M04 A2983 RMK AO2 FZDZE40 SLP110 P0002 I1000 T10281039
Conditions at: KORD (CHICAGO O'HARE , IL, US) observed 2251 UTC 17 February 2019
Temperature: -2.8°C (27°F)
Dewpoint: -3.9°C (25°F) [RH = 92%]
Pressure (altimeter): 29.83 inches Hg (1010.2 mb)
[Sea-level pressure: 1011.0 mb]
Winds: from the ENE (70 degrees) at 9 MPH (8 knots; 4.1 m/s)
Visibility: 2.00 miles (3.22 km)
Ceiling: 1400 feet AGL
Clouds: scattered clouds at 800 feet AGL
broken clouds at 1400 feet AGL
overcast cloud deck at 2000 feet AGL
Weather: -SN BR  (light snow, mist)

METAR text: KORD 172241Z 08009KT 2SM -SN BR SCT008 BKN014 OVC020 M03/M04 A2983 RMK AO2 FZDZE40 PRESRR P0001 I1000 T10281039
Conditions at: KORD (CHICAGO O'HARE , IL, US) observed 2241 UTC 17 February 2019
Temperature: -2.8°C (27°F)
Dewpoint: -3.9°C (25°F) [RH = 92%]
Pressure (altimeter): 29.83 inches Hg (1010.2 mb)
Winds: from the E (80 degrees) at 10 MPH (9 knots; 4.6 m/s)
Visibility: 2.00 miles (3.22 km)
Ceiling: 1400 feet AGL
Clouds: scattered clouds at 800 feet AGL
broken clouds at 1400 feet AGL
overcast cloud deck at 2000 feet AGL
Weather: -SN BR  (light snow, mist)

METAR text: KORD 172231Z 07008KT 2SM -FZDZSN BR SCT008 BKN014 OVC020 M03/M04 A2982 RMK AO2 P0001 I1000 T10281039
Conditions at: KORD (CHICAGO O'HARE , IL, US) observed 2231 UTC 17 February 2019
Temperature: -2.8°C (27°F)
Dewpoint: -3.9°C (25°F) [RH = 92%]
Pressure (altimeter): 29.82 inches Hg (1009.9 mb)
Winds: from the ENE (70 degrees) at 9 MPH (8 knots; 4.1 m/s)
Visibility: 2.00 miles (3.22 km)
Ceiling: 1400 feet AGL
Clouds: scattered clouds at 800 feet AGL
broken clouds at 1400 feet AGL
overcast cloud deck at 2000 feet AGL
Weather: -FZDZ SN BR  (light freezing drizzle, moderate snow, mist)

METAR text: KORD 172225Z 07012KT 2SM R10L/5500VP6000FT -FZDZSN BR BKN008 OVC014 M03/M04 A2981 RMK AO2 P0001 I1000 T10281039
Conditions at: KORD (CHICAGO O'HARE , IL, US) observed 2225 UTC 17 February 2019
Temperature: -2.8°C (27°F)
Dewpoint: -3.9°C (25°F) [RH = 92%]
Pressure (altimeter): 29.81 inches Hg (1009.6 mb)
Winds: from the ENE (70 degrees) at 14 MPH (12 knots; 6.2 m/s)
Visibility: 2.00 miles (3.22 km)
Ceiling: 800 feet AGL
Clouds: broken clouds at 800 feet AGL
overcast cloud deck at 1400 feet AGL
Weather: -FZDZ SN BR  (light freezing drizzle, moderate snow, mist)

METAR text: KORD 172209Z 06008KT 1 3/4SM -FZDZSN BR BKN007 BKN012 OVC021 M03/M04 A2980 RMK AO2 P0000 I1000 T10281039
Conditions at: KORD (CHICAGO O'HARE , IL, US) observed 2209 UTC 17 February 2019
Temperature: -2.8°C (27°F)
Dewpoint: -3.9°C (25°F) [RH = 92%]
Pressure (altimeter): 29.80 inches Hg (1009.2 mb)
Winds: from the ENE (60 degrees) at 9 MPH (8 knots; 4.1 m/s)
Visibility: 1.75 miles (2.82 km)
Ceiling: 700 feet AGL
Clouds: broken clouds at 700 feet AGL
broken clouds at 1200 feet AGL
overcast cloud deck at 2100 feet AGL
Weather: -FZDZ SN BR  (light freezing drizzle, moderate snow, mist)

METAR text: KORD 172151Z 05010KT 2SM R10L/6000VP6000FT -FZDZSN BR SCT008 BKN011 OVC019 M03/M04 A2980 RMK AO2 FZDZB2058 SLP101 P0001 I1000 T10281039
Conditions at: KORD (CHICAGO O'HARE , IL, US) observed 2151 UTC 17 February 2019
Temperature: -2.8°C (27°F)
Dewpoint: -3.9°C (25°F) [RH = 92%]
Pressure (altimeter): 29.80 inches Hg (1009.2 mb)
[Sea-level pressure: 1010.1 mb]
Winds: from the NE (50 degrees) at 12 MPH (10 knots; 5.1 m/s)
Visibility: 2.00 miles (3.22 km)
Ceiling: 1100 feet AGL
Clouds: scattered clouds at 800 feet AGL
broken clouds at 1100 feet AGL
overcast cloud deck at 1900 feet AGL
Weather: -FZDZ SN BR  (light freezing drizzle, moderate snow, mist)

METAR text: KORD 172130Z 05010KT 1 3/4SM R10L/5000VP6000FT -FZDZSN BR SCT008 BKN011 OVC017 M03/M04 A2980 RMK AO2 FZDZB2058 P0000 I1000 T10281039
Conditions at: KORD (CHICAGO O'HARE , IL, US) observed 2130 UTC 17 February 2019
Temperature: -2.8°C (27°F)
Dewpoint: -3.9°C (25°F) [RH = 92%]
Pressure (altimeter): 29.80 inches Hg (1009.2 mb)
Winds: from the NE (50 degrees) at 12 MPH (10 knots; 5.1 m/s)
Visibility: 1.75 miles (2.82 km)
Ceiling: 1100 feet AGL
Clouds: scattered clouds at 800 feet AGL
broken clouds at 1100 feet AGL
overcast cloud deck at 1700 feet AGL
Weather: -FZDZ SN BR  (light freezing drizzle, moderate snow, mist)

METAR text: KORD 172059Z 05008KT 1 3/4SM -FZDZSN BR OVC010 M03/M04 A2980 RMK AO2 FZDZB58 P0000 I1000 T10281039
Conditions at: KORD (CHICAGO O'HARE , IL, US) observed 2059 UTC 17 February 2019
Temperature: -2.8°C (27°F)
Dewpoint: -3.9°C (25°F) [RH = 92%]
Pressure (altimeter): 29.80 inches Hg (1009.2 mb)
Winds: from the NE (50 degrees) at 9 MPH (8 knots; 4.1 m/s)
Visibility: 1.75 miles (2.82 km)
Ceiling: 1000 feet AGL
Clouds: overcast cloud deck at 1000 feet AGL
Weather: -FZDZ SN BR  (light freezing drizzle, moderate snow, mist)

METAR text: KORD 172051Z 06006KT 2 1/2SM -SN BR OVC012 M03/M04 A2980 RMK AO2 SLP100 P0000 60000 T10281044 56014
Conditions at: KORD (CHICAGO O'HARE , IL, US) observed 2051 UTC 17 February 2019
Temperature: -2.8°C (27°F)
Dewpoint: -4.4°C (24°F) [RH = 89%]
Pressure (altimeter): 29.80 inches Hg (1009.2 mb)
[Sea-level pressure: 1010.0 mb]
Winds: from the ENE (60 degrees) at 7 MPH (6 knots; 3.1 m/s)
Visibility: 2.50 miles (4.02 km)
Ceiling: 1200 feet AGL
Clouds: overcast cloud deck at 1200 feet AGL
Weather: -SN BR  (light snow, mist)

METAR text: KORD 172031Z 07010KT 4SM R10L/5000VP6000FT -SN BR OVC012 M03/M04 A2980 RMK AO2 P0000 T10281044
Conditions at: KORD (CHICAGO O'HARE , IL, US) observed 2031 UTC 17 February 2019
Temperature: -2.8°C (27°F)
Dewpoint: -4.4°C (24°F) [RH = 89%]
Pressure (altimeter): 29.80 inches Hg (1009.2 mb)
Winds: from the ENE (70 degrees) at 12 MPH (10 knots; 5.1 m/s)
Visibility: 4 miles ( 6 km)
Ceiling: 1200 feet AGL
Clouds: overcast cloud deck at 1200 feet AGL
Weather: -SN BR  (light snow, mist)

METAR text: KORD 171951Z 07008KT 9SM -SN OVC013 M03/M05 A2980 RMK AO2 SLP100 P0000 T10281050
Conditions at: KORD (CHICAGO O'HARE , IL, US) observed 1951 UTC 17 February 2019
Temperature: -2.8°C (27°F)
Dewpoint: -5.0°C (23°F) [RH = 85%]
Pressure (altimeter): 29.80 inches Hg (1009.2 mb)
[Sea-level pressure: 1010.0 mb]
Winds: from the ENE (70 degrees) at 9 MPH (8 knots; 4.1 m/s)
Visibility: 9 miles (14 km)
Ceiling: 1300 feet AGL
Clouds: overcast cloud deck at 1300 feet AGL
Weather: -SN  (light snow)

METAR text: KORD 171851Z 09011KT 9SM -SN OVC013 M03/M05 A2981 RMK AO2 SNE1757B00E10B50 SLP104 P0000 T10281050
Conditions at: KORD (CHICAGO O'HARE , IL, US) observed 1851 UTC 17 February 2019
Temperature: -2.8°C (27°F)
Dewpoint: -5.0°C (23°F) [RH = 85%]
Pressure (altimeter): 29.81 inches Hg (1009.6 mb)
[Sea-level pressure: 1010.4 mb]
Winds: from the E (90 degrees) at 13 MPH (11 knots; 5.7 m/s)
Visibility: 9 miles (14 km)
Ceiling: 1300 feet AGL
Clouds: overcast cloud deck at 1300 feet AGL
Weather: -SN  (light snow)

METAR text: KORD 171810Z 09010G19KT 5SM BR OVC013 M03/M05 A2983 RMK AO2 SNE1757B00E10 P0000 T10281050
Conditions at: KORD (CHICAGO O'HARE , IL, US) observed 1810 UTC 17 February 2019
Temperature: -2.8°C (27°F)
Dewpoint: -5.0°C (23°F) [RH = 85%]
Pressure (altimeter): 29.83 inches Hg (1010.2 mb)
Winds: from the E (90 degrees) at 12 MPH (10 knots; 5.1 m/s)
gusting to 22 MPH (19 knots; 9.8 m/s)
Visibility: 5 miles ( 8 km)
Ceiling: 1300 feet AGL
Clouds: overcast cloud deck at 1300 feet AGL
Weather: BR  (mist)

METAR text: KORD 171759Z 08013KT 2 1/2SM HZ OVC013 M03/M06 A2984 RMK AO2 SNE57 P0000 T10281056
Conditions at: KORD (CHICAGO O'HARE , IL, US) observed 1759 UTC 17 February 2019
Temperature: -2.8°C (27°F)
Dewpoint: -5.6°C (22°F) [RH = 81%]
Pressure (altimeter): 29.84 inches Hg (1010.6 mb)
Winds: from the E (80 degrees) at 15 MPH (13 knots; 6.7 m/s)
Visibility: 2.50 miles (4.02 km)
Ceiling: 1300 feet AGL
Clouds: overcast cloud deck at 1300 feet AGL
Weather: HZ  (haze)

METAR text: KORD 171751Z 09012KT 7SM -SN OVC014 M03/M05 A2984 RMK AO2 SNE24B48 SLP114 4/001 P0000 60010 T10281050 11028 21044 56014
Conditions at: KORD (CHICAGO O'HARE , IL, US) observed 1751 UTC 17 February 2019
Temperature: -2.8°C (27°F)
Dewpoint: -5.0°C (23°F) [RH = 85%]
Pressure (altimeter): 29.84 inches Hg (1010.6 mb)
[Sea-level pressure: 1011.4 mb]
Winds: from the E (90 degrees) at 14 MPH (12 knots; 6.2 m/s)
Visibility: 7 miles (11 km)
Ceiling: 1400 feet AGL
Clouds: overcast cloud deck at 1400 feet AGL
Weather: -SN  (light snow)

METAR text: KORD 171717Z 09009KT 5SM -SN BR FEW008 BKN014 OVC018 M03/M05 A2986 RMK AO2 P0000 T10331050
Conditions at: KORD (CHICAGO O'HARE , IL, US) observed 1717 UTC 17 February 2019
Temperature: -3.3°C (26°F)
Dewpoint: -5.0°C (23°F) [RH = 88%]
Pressure (altimeter): 29.86 inches Hg (1011.3 mb)
Winds: from the E (90 degrees) at 10 MPH (9 knots; 4.6 m/s)
Visibility: 5 miles ( 8 km)
Ceiling: 1400 feet AGL
Clouds: few clouds at 800 feet AGL
broken clouds at 1400 feet AGL
overcast cloud deck at 1800 feet AGL
Weather: -SN BR  (light snow, mist)

METAR text: KORD 171707Z 08009KT 2SM -SN BR FEW008 BKN014 OVC020 M03/M05 A2986 RMK AO2 P0000 T10331050
Conditions at: KORD (CHICAGO O'HARE , IL, US) observed 1707 UTC 17 February 2019
Temperature: -3.3°C (26°F)
Dewpoint: -5.0°C (23°F) [RH = 88%]
Pressure (altimeter): 29.86 inches Hg (1011.3 mb)
Winds: from the E (80 degrees) at 10 MPH (9 knots; 4.6 m/s)
Visibility: 2.00 miles (3.22 km)
Ceiling: 1400 feet AGL
Clouds: few clouds at 800 feet AGL
broken clouds at 1400 feet AGL
overcast cloud deck at 2000 feet AGL
Weather: -SN BR  (light snow, mist)

METAR text: KORD 171651Z 09011KT 1/2SM R10L/2200VP6000FT -SN FZFG BKN012 OVC018 M03/M05 A2986 RMK AO2 SNE22B27 SLP121 P0002 T10331050
Conditions at: KORD (CHICAGO O'HARE , IL, US) observed 1651 UTC 17 February 2019
Temperature: -3.3°C (26°F)
Dewpoint: -5.0°C (23°F) [RH = 88%]
Pressure (altimeter): 29.86 inches Hg (1011.3 mb)
[Sea-level pressure: 1012.1 mb]
Winds: from the E (90 degrees) at 13 MPH (11 knots; 5.7 m/s)
Visibility: 0.50 miles (0.80 km)
Ceiling: 1200 feet AGL
Clouds: broken clouds at 1200 feet AGL
overcast cloud deck at 1800 feet AGL
Weather: -SN FZFG  (light snow, freezing fog)

METAR text: KORD 171643Z 08010KT 1/2SM R10L/2200VP6000FT SN FZFG BKN010 OVC018 M03/M05 A2986 RMK AO2 SNE22B27 P0001 T10331050
Conditions at: KORD (CHICAGO O'HARE , IL, US) observed 1643 UTC 17 February 2019
Temperature: -3.3°C (26°F)
Dewpoint: -5.0°C (23°F) [RH = 88%]
Pressure (altimeter): 29.86 inches Hg (1011.3 mb)
Winds: from the E (80 degrees) at 12 MPH (10 knots; 5.1 m/s)
Visibility: 0.50 miles (0.80 km)
Ceiling: 1000 feet AGL
Clouds: broken clouds at 1000 feet AGL
overcast cloud deck at 1800 feet AGL
Weather: SN FZFG  (moderate snow, freezing fog)

METAR text: KORD 171625Z 09014G18KT 2 1/2SM BR FEW008 BKN013 OVC017 M03/M05 A2986 RMK AO2 SNE22 P0001 T10331050
Conditions at: KORD (CHICAGO O'HARE , IL, US) observed 1625 UTC 17 February 2019
Temperature: -3.3°C (26°F)
Dewpoint: -5.0°C (23°F) [RH = 88%]
Pressure (altimeter): 29.86 inches Hg (1011.3 mb)
Winds: from the E (90 degrees) at 16 MPH (14 knots; 7.2 m/s)
gusting to 21 MPH (18 knots; 9.3 m/s)
Visibility: 2.50 miles (4.02 km)
Ceiling: 1300 feet AGL
Clouds: few clouds at 800 feet AGL
broken clouds at 1300 feet AGL
overcast cloud deck at 1700 feet AGL
Weather: BR  (mist)

METAR text: KORD 171623Z 09013G18KT 2 1/2SM BR SCT010 OVC017 M03/M05 A2987 RMK AO2 SNE22 P0001 T10331050
Conditions at: KORD (CHICAGO O'HARE , IL, US) observed 1623 UTC 17 February 2019
Temperature: -3.3°C (26°F)
Dewpoint: -5.0°C (23°F) [RH = 88%]
Pressure (altimeter): 29.87 inches Hg (1011.6 mb)
Winds: from the E (90 degrees) at 15 MPH (13 knots; 6.7 m/s)
gusting to 21 MPH (18 knots; 9.3 m/s)
Visibility: 2.50 miles (4.02 km)
Ceiling: 1700 feet AGL
Clouds: scattered clouds at 1000 feet AGL
overcast cloud deck at 1700 feet AGL
Weather: BR  (mist)

METAR text: KORD 171616Z 09010KT 2SM R10L/4500VP6000FT -SN BR BKN010 OVC017 M03/M05 A2987 RMK AO2 P0001 T10331050
Conditions at: KORD (CHICAGO O'HARE , IL, US) observed 1616 UTC 17 February 2019
Temperature: -3.3°C (26°F)
Dewpoint: -5.0°C (23°F) [RH = 88%]
Pressure (altimeter): 29.87 inches Hg (1011.6 mb)
Winds: from the E (90 degrees) at 12 MPH (10 knots; 5.1 m/s)
Visibility: 2.00 miles (3.22 km)
Ceiling: 1000 feet AGL
Clouds: broken clouds at 1000 feet AGL
overcast cloud deck at 1700 feet AGL
Weather: -SN BR  (light snow, mist)

METAR text: KORD 171610Z 08011KT 1 1/2SM R10L/4500VP6000FT -SN BR SCT008 OVC015 M03/M05 A2986 RMK AO2 P0001 T10331050
Conditions at: KORD (CHICAGO O'HARE , IL, US) observed 1610 UTC 17 February 2019
Temperature: -3.3°C (26°F)
Dewpoint: -5.0°C (23°F) [RH = 88%]
Pressure (altimeter): 29.86 inches Hg (1011.3 mb)
Winds: from the E (80 degrees) at 13 MPH (11 knots; 5.7 m/s)
Visibility: 1.50 miles (2.41 km)
Ceiling: 1500 feet AGL
Clouds: scattered clouds at 800 feet AGL
overcast cloud deck at 1500 feet AGL
Weather: -SN BR  (light snow, mist)

METAR text: KORD 171551Z 08010KT 3/4SM R10L/3000VP6000FT -SN BR FEW009 OVC019 M04/M05 A2985 RMK AO2 SLP117 P0003 T10391050
Conditions at: KORD (CHICAGO O'HARE , IL, US) observed 1551 UTC 17 February 2019
Temperature: -3.9°C (25°F)
Dewpoint: -5.0°C (23°F) [RH = 92%]
Pressure (altimeter): 29.85 inches Hg (1010.9 mb)
[Sea-level pressure: 1011.7 mb]
Winds: from the E (80 degrees) at 12 MPH (10 knots; 5.1 m/s)
Visibility: 0.75 miles (1.21 km)
Ceiling: 1900 feet AGL
Clouds: few clouds at 900 feet AGL
overcast cloud deck at 1900 feet AGL
Weather: -SN BR  (light snow, mist)

METAR text: KORD 171523Z 09011KT 3/4SM R10L/3000VP6000FT -SN BR BKN017 OVC047 M04/M05 A2986 RMK AO2 P0002 T10441050
Conditions at: KORD (CHICAGO O'HARE , IL, US) observed 1523 UTC 17 February 2019
Temperature: -4.4°C (24°F)
Dewpoint: -5.0°C (23°F) [RH = 96%]
Pressure (altimeter): 29.86 inches Hg (1011.3 mb)
Winds: from the E (90 degrees) at 13 MPH (11 knots; 5.7 m/s)
Visibility: 0.75 miles (1.21 km)
Ceiling: 1700 feet AGL
Clouds: broken clouds at 1700 feet AGL
overcast cloud deck at 4700 feet AGL
Weather: -SN BR  (light snow, mist)

METAR text: KORD 171510Z 09013G19KT 1/4SM R10L/2200V3000FT SN FZFG VV010 M04/M05 A2987 RMK AO2 P0001 T10441050
Conditions at: KORD (CHICAGO O'HARE , IL, US) observed 1510 UTC 17 February 2019
Temperature: -4.4°C (24°F)
Dewpoint: -5.0°C (23°F) [RH = 96%]
Pressure (altimeter): 29.87 inches Hg (1011.6 mb)
Winds: from the E (90 degrees) at 15 MPH (13 knots; 6.7 m/s)
gusting to 22 MPH (19 knots; 9.8 m/s)
Visibility: 0.25 miles (0.40 km)
Ceiling: indefinite ceiling with vertical visibility of 1000 feet AGL
Clouds: obscured sky
Weather: SN FZFG  (moderate snow, freezing fog)

METAR text: KORD 171451Z 09010KT 1/2SM R10L/2800V4500FT SN FZFG VV013 M04/M06 A2988 RMK AO2 SLP128 SNINCR/1/1 P0003 60005 T10441056 56009
Conditions at: KORD (CHICAGO O'HARE , IL, US) observed 1451 UTC 17 February 2019
Temperature: -4.4°C (24°F)
Dewpoint: -5.6°C (22°F) [RH = 91%]
Pressure (altimeter): 29.88 inches Hg (1011.9 mb)
[Sea-level pressure: 1012.8 mb]
Winds: from the E (90 degrees) at 12 MPH (10 knots; 5.1 m/s)
Visibility: 0.50 miles (0.80 km)
Ceiling: indefinite ceiling with vertical visibility of 1300 feet AGL
Clouds: obscured sky
Weather: SN FZFG  (moderate snow, freezing fog)

METAR text: KORD 171442Z 08008KT 1/2SM R10L/3500VP6000FT SN FZFG VV012 M04/M05 A2989 RMK AO2 P0002 T10441050
Conditions at: KORD (CHICAGO O'HARE , IL, US) observed 1442 UTC 17 February 2019
Temperature: -4.4°C (24°F)
Dewpoint: -5.0°C (23°F) [RH = 96%]
Pressure (altimeter): 29.89 inches Hg (1012.3 mb)
Winds: from the E (80 degrees) at 9 MPH (8 knots; 4.1 m/s)
Visibility: 0.50 miles (0.80 km)
Ceiling: indefinite ceiling with vertical visibility of 1200 feet AGL
Clouds: obscured sky
Weather: SN FZFG  (moderate snow, freezing fog)

METAR text: KORD 171432Z 08008KT 1/4SM R10L/2000V3000FT SN FZFG VV013 M04/M06 A2989 RMK AO2 P0002 T10441056
Conditions at: KORD (CHICAGO O'HARE , IL, US) observed 1432 UTC 17 February 2019
Temperature: -4.4°C (24°F)
Dewpoint: -5.6°C (22°F) [RH = 91%]
Pressure (altimeter): 29.89 inches Hg (1012.3 mb)
Winds: from the E (80 degrees) at 9 MPH (8 knots; 4.1 m/s)
Visibility: 0.25 miles (0.40 km)
Ceiling: indefinite ceiling with vertical visibility of 1300 feet AGL
Clouds: obscured sky
Weather: SN FZFG  (moderate snow, freezing fog)

METAR text: KORD 171422Z 09011KT 1/4SM R10L/2000VP6000FT +SN FZFG VV017 M04/M06 A2988 RMK AO2 P0001 T10441056
Conditions at: KORD (CHICAGO O'HARE , IL, US) observed 1422 UTC 17 February 2019
Temperature: -4.4°C (24°F)
Dewpoint: -5.6°C (22°F) [RH = 91%]
Pressure (altimeter): 29.88 inches Hg (1011.9 mb)
Winds: from the E (90 degrees) at 13 MPH (11 knots; 5.7 m/s)
Visibility: 0.25 miles (0.40 km)
Ceiling: indefinite ceiling with vertical visibility of 1700 feet AGL
Clouds: obscured sky
Weather: +SN FZFG  (heavy snow, freezing fog)

METAR text: KORD 171351Z 09010KT 1SM R10L/5500VP6000FT -SN BR OVC021 M04/M06 A2990 RMK AO2 SLP132 P0002 T10441056
Conditions at: KORD (CHICAGO O'HARE , IL, US) observed 1351 UTC 17 February 2019
Temperature: -4.4°C (24°F)
Dewpoint: -5.6°C (22°F) [RH = 91%]
Pressure (altimeter): 29.90 inches Hg (1012.6 mb)
[Sea-level pressure: 1013.2 mb]
Winds: from the E (90 degrees) at 12 MPH (10 knots; 5.1 m/s)
Visibility: 1.00 miles (1.61 km)
Ceiling: 2100 feet AGL
Clouds: overcast cloud deck at 2100 feet AGL
Weather: -SN BR  (light snow, mist)

METAR text: KORD 171340Z 10009KT 3/4SM R10L/4500VP6000FT -SN BR VV018 M04/M06 A2990 RMK AO2 P0001 T10441056
Conditions at: KORD (CHICAGO O'HARE , IL, US) observed 1340 UTC 17 February 2019
Temperature: -4.4°C (24°F)
Dewpoint: -5.6°C (22°F) [RH = 91%]
Pressure (altimeter): 29.90 inches Hg (1012.6 mb)
Winds: from the E (100 degrees) at 10 MPH (9 knots; 4.6 m/s)
Visibility: 0.75 miles (1.21 km)
Ceiling: indefinite ceiling with vertical visibility of 1800 feet AGL
Clouds: obscured sky
Weather: -SN BR  (light snow, mist)

METAR text: KORD 171321Z 10007KT 1SM R10L/P6000FT -SN BR VV018 M04/M06 A2989 RMK AO2 P0001 T10441061
Conditions at: KORD (CHICAGO O'HARE , IL, US) observed 1321 UTC 17 February 2019
Temperature: -4.4°C (24°F)
Dewpoint: -6.1°C (21°F) [RH = 88%]
Pressure (altimeter): 29.89 inches Hg (1012.3 mb)
Winds: from the E (100 degrees) at 8 MPH (7 knots; 3.6 m/s)
Visibility: 1.00 miles (1.61 km)
Ceiling: indefinite ceiling with vertical visibility of 1800 feet AGL
Clouds: obscured sky
Weather: -SN BR  (light snow, mist)

METAR text: KORD 171251Z 09009KT 1 3/4SM R10L/5500VP6000FT -SN BR OVC015 M04/M07 A2988 RMK AO2 SLP129 P0000 T10441067
Conditions at: KORD (CHICAGO O'HARE , IL, US) observed 1251 UTC 17 February 2019
Temperature: -4.4°C (24°F)
Dewpoint: -6.7°C (20°F) [RH = 84%]
Pressure (altimeter): 29.88 inches Hg (1011.9 mb)
[Sea-level pressure: 1012.9 mb]
Winds: from the E (90 degrees) at 10 MPH (9 knots; 4.6 m/s)
Visibility: 1.75 miles (2.82 km)
Ceiling: 1500 feet AGL
Clouds: overcast cloud deck at 1500 feet AGL
Weather: -SN BR  (light snow, mist)

METAR text: KORD 171241Z 10011KT 4SM -SN OVC017 M04/M07 A2989 RMK AO2 P0000 T10441067
Conditions at: KORD (CHICAGO O'HARE , IL, US) observed 1241 UTC 17 February 2019
Temperature: -4.4°C (24°F)
Dewpoint: -6.7°C (20°F) [RH = 84%]
Pressure (altimeter): 29.89 inches Hg (1012.3 mb)
Winds: from the E (100 degrees) at 13 MPH (11 knots; 5.7 m/s)
Visibility: 4 miles ( 6 km)
Ceiling: 1700 feet AGL
Clouds: overcast cloud deck at 1700 feet AGL
Weather: -SN  (light snow)

METAR text: KORD 171151Z 10014KT 7SM -SN BKN016 OVC020 M04/M07 A2991 RMK AO2 SLP137 P0000 60000 T10391072 11039 21044 56012
Conditions at: KORD (CHICAGO O'HARE , IL, US) observed 1151 UTC 17 February 2019
Temperature: -3.9°C (25°F)
Dewpoint: -7.2°C (19°F) [RH = 78%]
Pressure (altimeter): 29.91 inches Hg (1013.0 mb)
[Sea-level pressure: 1013.7 mb]
Winds: from the E (100 degrees) at 16 MPH (14 knots; 7.2 m/s)
Visibility: 7 miles (11 km)
Ceiling: 1600 feet AGL
Clouds: broken clouds at 1600 feet AGL
overcast cloud deck at 2000 feet AGL
Weather: -SN  (light snow)

METAR text: KORD 171051Z 10012KT 10SM -SN OVC016 M04/M07 A2992 RMK AO2 SNB48 SLP142 P0000 T10391072
Conditions at: KORD (CHICAGO O'HARE , IL, US) observed 1051 UTC 17 February 2019
Temperature: -3.9°C (25°F)
Dewpoint: -7.2°C (19°F) [RH = 78%]
Pressure (altimeter): 29.92 inches Hg (1013.3 mb)
[Sea-level pressure: 1014.2 mb]
Winds: from the E (100 degrees) at 14 MPH (12 knots; 6.2 m/s)
Visibility: 10 or more miles (16+ km)
Ceiling: 1600 feet AGL
Clouds: overcast cloud deck at 1600 feet AGL
Weather: -SN  (light snow)

METAR text: KORD 170951Z 10011KT 10SM OVC016 M04/M07 A2992 RMK AO2 SLP142 T10441072
Conditions at: KORD (CHICAGO O'HARE , IL, US) observed 0951 UTC 17 February 2019
Temperature: -4.4°C (24°F)
Dewpoint: -7.2°C (19°F) [RH = 81%]
Pressure (altimeter): 29.92 inches Hg (1013.3 mb)
[Sea-level pressure: 1014.2 mb]
Winds: from the E (100 degrees) at 13 MPH (11 knots; 5.7 m/s)
Visibility: 10 or more miles (16+ km)
Ceiling: 1600 feet AGL
Clouds: overcast cloud deck at 1600 feet AGL
Weather: no significant weather observed at this time

METAR text: KORD 170851Z 08010KT 10SM OVC019 M04/M08 A2994 RMK AO2 SLP148 T10391078 58003
Conditions at: KORD (CHICAGO O'HARE , IL, US) observed 0851 UTC 17 February 2019
Temperature: -3.9°C (25°F)
Dewpoint: -7.8°C (18°F) [RH = 74%]
Pressure (altimeter): 29.94 inches Hg (1014.0 mb)
[Sea-level pressure: 1014.8 mb]
Winds: from the E (80 degrees) at 12 MPH (10 knots; 5.1 m/s)
Visibility: 10 or more miles (16+ km)
Ceiling: 1900 feet AGL
Clouds: overcast cloud deck at 1900 feet AGL
Weather: no significant weather observed at this time

METAR text: KORD 170751Z 09007KT 10SM OVC019 M04/M08 A2996 RMK AO2 SLP154 T10391078
Conditions at: KORD (CHICAGO O'HARE , IL, US) observed 0751 UTC 17 February 2019
Temperature: -3.9°C (25°F)
Dewpoint: -7.8°C (18°F) [RH = 74%]
Pressure (altimeter): 29.96 inches Hg (1014.6 mb)
[Sea-level pressure: 1015.4 mb]
Winds: from the E (90 degrees) at 8 MPH (7 knots; 3.6 m/s)
Visibility: 10 or more miles (16+ km)
Ceiling: 1900 feet AGL
Clouds: overcast cloud deck at 1900 feet AGL
Weather: no significant weather observed at this time

METAR text: KORD 170651Z 10012KT 10SM OVC018 M04/M08 A2999 RMK AO2 SLP162 T10441078
Conditions at: KORD (CHICAGO O'HARE , IL, US) observed 0651 UTC 17 February 2019
Temperature: -4.4°C (24°F)
Dewpoint: -7.8°C (18°F) [RH = 77%]
Pressure (altimeter): 29.99 inches Hg (1015.7 mb)
[Sea-level pressure: 1016.2 mb]
Winds: from the E (100 degrees) at 14 MPH (12 knots; 6.2 m/s)
Visibility: 10 or more miles (16+ km)
Ceiling: 1800 feet AGL
Clouds: overcast cloud deck at 1800 feet AGL
Weather: no significant weather observed at this time

METAR text: KORD 170551Z 08012G23KT 10SM OVC018 M04/M08 A2995 RMK AO2 SLP152 T10441078 11033 21044 410171106 58017
Conditions at: KORD (CHICAGO O'HARE , IL, US) observed 0551 UTC 17 February 2019
Temperature: -4.4°C (24°F)
Dewpoint: -7.8°C (18°F) [RH = 77%]
Pressure (altimeter): 29.95 inches Hg (1014.3 mb)
[Sea-level pressure: 1015.2 mb]
Winds: from the E (80 degrees) at 14 MPH (12 knots; 6.2 m/s)
gusting to 26 MPH (23 knots; 11.8 m/s)
Visibility: 10 or more miles (16+ km)
Ceiling: 1800 feet AGL
Clouds: overcast cloud deck at 1800 feet AGL
Weather: no significant weather observed at this time

METAR text: KORD 170451Z 08012G21KT 10SM OVC020 M04/M08 A2997 RMK AO2 SLP159 T10391078
Conditions at: KORD (CHICAGO O'HARE , IL, US) observed 0451 UTC 17 February 2019
Temperature: -3.9°C (25°F)
Dewpoint: -7.8°C (18°F) [RH = 74%]
Pressure (altimeter): 29.97 inches Hg (1015.0 mb)
[Sea-level pressure: 1015.9 mb]
Winds: from the E (80 degrees) at 14 MPH (12 knots; 6.2 m/s)
gusting to 24 MPH (21 knots; 10.8 m/s)
Visibility: 10 or more miles (16+ km)
Ceiling: 2000 feet AGL
Clouds: overcast cloud deck at 2000 feet AGL
Weather: no significant weather observed at this time

METAR text: KORD 170351Z 08010KT 10SM OVC021 M04/M08 A3001 RMK AO2 SLP173 T10391078
Conditions at: KORD (CHICAGO O'HARE , IL, US) observed 0351 UTC 17 February 2019
Temperature: -3.9°C (25°F)
Dewpoint: -7.8°C (18°F) [RH = 74%]
Pressure (altimeter): 30.01 inches Hg (1016.3 mb)
[Sea-level pressure: 1017.3 mb]
Winds: from the E (80 degrees) at 12 MPH (10 knots; 5.1 m/s)
Visibility: 10 or more miles (16+ km)
Ceiling: 2100 feet AGL
Clouds: overcast cloud deck at 2100 feet AGL
Weather: no significant weather observed at this time

METAR text: KORD 170251Z 07012KT 10SM OVC019 M04/M08 A3000 RMK AO2 SLP170 T10391078 58015
Conditions at: KORD (CHICAGO O'HARE , IL, US) observed 0251 UTC 17 February 2019
Temperature: -3.9°C (25°F)
Dewpoint: -7.8°C (18°F) [RH = 74%]
Pressure (altimeter): 30.00 inches Hg (1016.0 mb)
[Sea-level pressure: 1017.0 mb]
Winds: from the ENE (70 degrees) at 14 MPH (12 knots; 6.2 m/s)
Visibility: 10 or more miles (16+ km)
Ceiling: 1900 feet AGL
Clouds: overcast cloud deck at 1900 feet AGL
Weather: no significant weather observed at this time

METAR text: KORD 170151Z 09010KT 10SM OVC019 M04/M08 A3004 RMK AO2 SLP183 T10391078
Conditions at: KORD (CHICAGO O'HARE , IL, US) observed 0151 UTC 17 February 2019
Temperature: -3.9°C (25°F)
Dewpoint: -7.8°C (18°F) [RH = 74%]
Pressure (altimeter): 30.04 inches Hg (1017.4 mb)
[Sea-level pressure: 1018.3 mb]
Winds: from the E (90 degrees) at 12 MPH (10 knots; 5.1 m/s)
Visibility: 10 or more miles (16+ km)
Ceiling: 1900 feet AGL
Clouds: overcast cloud deck at 1900 feet AGL
Weather: no significant weather observed at this time

METAR text: KORD 170051Z 08010KT 10SM OVC020 M04/M08 A3007 RMK AO2 SLP192 T10391078
Conditions at: KORD (CHICAGO O'HARE , IL, US) observed 0051 UTC 17 February 2019
Temperature: -3.9°C (25°F)
Dewpoint: -7.8°C (18°F) [RH = 74%]
Pressure (altimeter): 30.07 inches Hg (1018.4 mb)
[Sea-level pressure: 1019.2 mb]
Winds: from the E (80 degrees) at 12 MPH (10 knots; 5.1 m/s)
Visibility: 10 or more miles (16+ km)
Ceiling: 2000 feet AGL
Clouds: overcast cloud deck at 2000 feet AGL
Weather: no significant weather observed at this time

METAR text: KORD 162351Z 08010KT 10SM OVC022 M04/M08 A3005 RMK AO2 SLP187 60000 T10391083 11017 21039 55000
Conditions at: KORD (CHICAGO O'HARE , IL, US) observed 2351 UTC 16 February 2019
Temperature: -3.9°C (25°F)
Dewpoint: -8.3°C (17°F) [RH = 71%]
Pressure (altimeter): 30.05 inches Hg (1017.7 mb)
[Sea-level pressure: 1018.7 mb]
Winds: from the E (80 degrees) at 12 MPH (10 knots; 5.1 m/s)
Visibility: 10 or more miles (16+ km)
Ceiling: 2200 feet AGL
Clouds: overcast cloud deck at 2200 feet AGL
Weather: no significant weather observed at this time

METAR text: KORD 162251Z 07012KT 10SM OVC022 M03/M07 A3004 RMK AO2 SLP184 VCSH SW-W T10281072
Conditions at: KORD (CHICAGO O'HARE , IL, US) observed 2251 UTC 16 February 2019
Temperature: -2.8°C (27°F)
Dewpoint: -7.2°C (19°F) [RH = 72%]
Pressure (altimeter): 30.04 inches Hg (1017.4 mb)
[Sea-level pressure: 1018.4 mb]
Winds: from the ENE (70 degrees) at 14 MPH (12 knots; 6.2 m/s)
Visibility: 10 or more miles (16+ km)
Ceiling: 2200 feet AGL
Clouds: overcast cloud deck at 2200 feet AGL
Weather: no significant weather observed at this time

METAR text: KORD 162151Z 07009KT 10SM OVC019 M02/M06 A3004 RMK AO2 SNB02E11 SLP182 VCSH W AND NW P0000 T10221061
Conditions at: KORD (CHICAGO O'HARE , IL, US) observed 2151 UTC 16 February 2019
Temperature: -2.2°C (28°F)
Dewpoint: -6.1°C (21°F) [RH = 75%]
Pressure (altimeter): 30.04 inches Hg (1017.4 mb)
[Sea-level pressure: 1018.2 mb]
Winds: from the ENE (70 degrees) at 10 MPH (9 knots; 4.6 m/s)
Visibility: 10 or more miles (16+ km)
Ceiling: 1900 feet AGL
Clouds: overcast cloud deck at 1900 feet AGL
Weather: no significant weather observed at this time

METAR text: KORD 162051Z 05008KT 10SM OVC022 M02/M06 A3005 RMK AO2 SLP186 VCSH SW T10171061 56009
Conditions at: KORD (CHICAGO O'HARE , IL, US) observed 2051 UTC 16 February 2019
Temperature: -1.7°C (29°F)
Dewpoint: -6.1°C (21°F) [RH = 72%]
Pressure (altimeter): 30.05 inches Hg (1017.7 mb)
[Sea-level pressure: 1018.6 mb]
Winds: from the NE (50 degrees) at 9 MPH (8 knots; 4.1 m/s)
Visibility: 10 or more miles (16+ km)
Ceiling: 2200 feet AGL
Clouds: overcast cloud deck at 2200 feet AGL
Weather: no significant weather observed at this time

METAR text: KORD 161951Z 05010KT 10SM OVC022 M02/M07 A3005 RMK AO2 SLP186 T10171067
Conditions at: KORD (CHICAGO O'HARE , IL, US) observed 1951 UTC 16 February 2019
Temperature: -1.7°C (29°F)
Dewpoint: -6.7°C (20°F) [RH = 69%]
Pressure (altimeter): 30.05 inches Hg (1017.7 mb)
[Sea-level pressure: 1018.6 mb]
Winds: from the NE (50 degrees) at 12 MPH (10 knots; 5.1 m/s)
Visibility: 10 or more miles (16+ km)
Ceiling: 2200 feet AGL
Clouds: overcast cloud deck at 2200 feet AGL
Weather: no significant weather observed at this time

Forecast for: KORD (CHICAGO O'HARE , IL, US)
Text: KORD 180531Z 1806/1912 36009KT 2SM -SN BR FEW008 BKN015 OVC025
Forecast period: 0600 to 0700 UTC 18 February 2019
Forecast type: FROM: standard forecast or significant change
Winds: from the N (360 degrees) at 10 MPH (9 knots; 4.6 m/s)
Visibility: 2.00 miles (3.22 km)
Ceiling: 1500 feet AGL
Clouds: few clouds at 800 feet AGL
broken clouds at 1500 feet AGL
overcast cloud deck at 2500 feet AGL
Weather: -SN BR  (light snow, mist)
Text: FM180700 36009KT 3SM -SN BR BKN015 OVC025
Forecast period: 0700 to 1300 UTC 18 February 2019
Forecast type: FROM: standard forecast or significant change
Winds: from the N (360 degrees) at 10 MPH (9 knots; 4.6 m/s)
Visibility: 3 miles (5 km)
Ceiling: 1500 feet AGL
Clouds: broken clouds at 1500 feet AGL
overcast cloud deck at 2500 feet AGL
Weather: -SN BR  (light snow, mist)
Text: TEMPO 1809/1813 1SM -SHSN
Forecast period: 0900 to 1300 UTC 18 February 2019
Forecast type: TEMPORARY: The following changes expected for less than half the time period
Visibility: 1.00 miles (1.61 km)
Ceiling: unknown
Clouds: missing
Weather: -SHSN  (light snow showers)
Text: FM181300 36011KT 5SM -SHSN BKN015 OVC025
Forecast period: 1300 to 1500 UTC 18 February 2019
Forecast type: FROM: standard forecast or significant change
Winds: from the N (360 degrees) at 13 MPH (11 knots; 5.7 m/s)
Visibility: 5 miles (8 km)
Ceiling: 1500 feet AGL
Clouds: broken clouds at 1500 feet AGL
overcast cloud deck at 2500 feet AGL
Weather: -SHSN  (light snow showers)
Text: FM181500 35010KT P6SM SCT015 OVC025
Forecast period: 1500 UTC 18 February 2019 to 0000 UTC 19 February 2019
Forecast type: FROM: standard forecast or significant change
Winds: from the N (350 degrees) at 12 MPH (10 knots; 5.1 m/s)
Visibility: 6 or more miles 10+ km)
Ceiling: 2500 feet AGL
Clouds: scattered clouds at 1500 feet AGL
overcast cloud deck at 2500 feet AGL
Weather: no significant weather forecast for this period
Text: FM190000 34008KT P6SM SCT025 BKN035
Forecast period: 0000 to 1200 UTC 19 February 2019
Forecast type: FROM: standard forecast or significant change
Winds: from the NNW (340 degrees) at 9 MPH (8 knots; 4.1 m/s)
Visibility: 6 or more miles 10+ km)
Ceiling: 3500 feet AGL
Clouds: scattered clouds at 2500 feet AGL
broken clouds at 3500 feet AGL
Weather: no significant weather forecast for this period